Time;durP1;ratioP1;P1;durP2;ratioP2;P2;SDS_P1;SDS_P2;PMS_P1;PMS_P2;Temp;Humidity;BMP_temperature;BMP_pressure;BME280_temperature;BME280_humidity;BME280_pressure;Samples;Min_cycle;Max_cycle;Signal;HPM_P1;HPM_P2
2021/07/01 02:16:26;;;;;;;28.43;17.63;;;15.20;99.90;;;;;;3346629;26;20976;-74
2021/07/01 02:18:55;;;;;;;29.53;17.53;;;15.20;99.90;;;;;;4997894;28;20830;-74
2021/07/01 02:21:25;;;;;;;27.27;18.50;;;15.20;99.90;;;;;;5015061;28;20492;-74
2021/07/01 02:23:53;;;;;;;25.27;16.10;;;15.20;99.90;;;;;;4997858;28;20453;-74
2021/07/01 02:26:22;;;;;;;21.77;17.70;;;15.20;99.90;;;;;;4998342;28;20482;-74
2021/07/01 02:28:50;;;;;;;27.33;19.97;;;15.10;99.90;;;;;;4997702;28;20553;-74
2021/07/01 02:31:34;;;;;;;30.73;19.03;;;15.10;99.90;;;;;;4998267;28;20448;-74
2021/07/01 02:34:03;;;;;;;27.43;17.93;;;15.20;99.90;;;;;;4997657;28;20473;-74
2021/07/01 02:36:49;;;;;;;24.97;18.53;;;15.10;99.90;;;;;;5015205;28;20894;-74
2021/07/01 02:39:47;;;;;;;24.20;17.20;;;15.20;99.90;;;;;;5014836;28;20457;-74
2021/07/01 02:42:15;;;;;;;24.43;18.97;;;15.10;99.90;;;;;;4997285;28;20476;-74
2021/07/01 02:44:44;;;;;;;23.73;18.70;;;15.10;99.90;;;;;;4997044;28;20451;-74
2021/07/01 02:47:32;;;;;;;24.27;18.40;;;15.10;99.90;;;;;;5015699;28;20419;-74
2021/07/01 02:50:01;;;;;;;29.20;19.30;;;15.10;99.90;;;;;;5014470;28;20476;-74
2021/07/01 02:52:36;;;;;;;24.40;19.40;;;15.10;99.90;;;;;;4997291;28;20447;-74
2021/07/01 02:55:05;;;;;;;23.60;18.00;;;15.20;99.90;;;;;;4997176;28;20581;-74
2021/07/01 02:57:34;;;;;;;34.43;19.30;;;15.10;99.90;;;;;;5014797;28;20473;-74
2021/07/01 03:00:06;;;;;;;25.80;19.23;;;15.10;99.90;;;;;;4997517;28;20474;-74
2021/07/01 03:02:42;;;;;;;26.58;18.05;;;15.10;99.90;;;;;;5014505;28;20442;-74
2021/07/01 03:05:40;;;;;;;20.67;17.87;;;15.10;99.90;;;;;;4989222;28;20227;-74
2021/07/01 03:08:08;;;;;;;25.53;20.23;;;15.10;99.90;;;;;;4994963;28;20441;-74
2021/07/01 03:10:44;;;;;;;25.30;19.00;;;15.10;99.90;;;;;;4996932;28;20467;-74
2021/07/01 03:13:14;;;;;;;20.27;17.27;;;15.00;99.90;;;;;;4997199;28;20934;-74
2021/07/01 03:15:44;;;;;;;24.90;18.37;;;15.10;99.90;;;;;;5014437;28;20457;-74
2021/07/01 03:18:13;;;;;;;24.60;18.00;;;15.10;99.90;;;;;;5014354;28;20461;-74
2021/07/01 03:21:00;;;;;;;22.83;17.83;;;15.00;99.90;;;;;;5014616;28;21044;-74
2021/07/01 03:23:47;;;;;;;25.93;17.47;;;15.00;99.90;;;;;;5014424;28;20478;-74
2021/07/01 03:26:17;;;;;;;23.63;16.17;;;15.00;99.90;;;;;;5014244;28;20421;-74
2021/07/01 03:28:47;;;;;;;23.40;19.30;;;15.00;99.90;;;;;;5011882;28;20433;-74
2021/07/01 03:31:15;;;;;;;24.50;17.80;;;15.00;99.90;;;;;;4996750;28;20455;-74
2021/07/01 03:33:45;;;;;;;21.93;18.87;;;15.00;99.90;;;;;;4996432;28;20487;-74
2021/07/01 03:36:13;;;;;;;21.23;18.07;;;15.00;99.90;;;;;;4996474;28;20451;-74
2021/07/01 03:39:21;;;;;;;20.80;17.53;;;15.00;99.90;;;;;;4953918;28;20479;-74
2021/07/01 03:42:01;;;;;;;22.60;15.47;;;15.00;99.90;;;;;;4937693;29;20461;-74
2021/07/01 03:44:30;;;;;;;21.60;17.83;;;15.00;99.90;;;;;;4988270;28;20467;-74
2021/07/01 03:46:58;;;;;;;21.30;16.03;;;15.00;99.90;;;;;;5014212;28;20938;-74
2021/07/01 03:49:28;;;;;;;18.70;15.13;;;15.00;99.90;;;;;;4996815;28;20463;-74
2021/07/01 03:52:16;;;;;;;21.83;16.07;;;15.00;99.90;;;;;;5013748;28;20432;-74
2021/07/01 03:54:48;;;;;;;18.20;14.97;;;15.00;99.90;;;;;;4996282;28;20462;-74
2021/07/01 03:57:16;;;;;;;20.87;15.63;;;15.00;99.90;;;;;;4996145;28;20420;-74
2021/07/01 03:59:53;;;;;;;19.43;15.67;;;15.00;99.90;;;;;;5013833;28;20449;-74
2021/07/01 04:02:40;;;;;;;18.63;14.03;;;15.00;99.90;;;;;;5014368;28;20425;-74
2021/07/01 04:05:16;;;;;;;20.33;15.20;;;15.00;99.90;;;;;;4996067;28;20812;-75
2021/07/01 04:07:48;;;;;;;17.73;14.33;;;15.00;99.90;;;;;;4996036;28;20439;-74
2021/07/01 04:10:19;;;;;;;18.57;14.10;;;15.10;99.90;;;;;;5014408;28;20462;-74
2021/07/01 04:12:47;;;;;;;21.67;15.40;;;15.10;99.90;;;;;;5011655;28;20426;-74
2021/07/01 04:15:34;;;;;;;18.50;14.00;;;15.10;99.90;;;;;;5014154;28;20484;-74
2021/07/01 04:18:21;;;;;;;15.67;13.37;;;15.10;99.90;;;;;;5013807;28;20449;-74
2021/07/01 04:21:09;;;;;;;15.63;12.83;;;15.10;99.90;;;;;;5014008;28;20461;-74
2021/07/01 04:23:57;;;;;;;16.07;13.10;;;15.10;99.90;;;;;;5013472;28;20547;-74
2021/07/01 04:26:26;;;;;;;13.17;11.47;;;15.10;99.90;;;;;;5013719;28;20769;-74
2021/07/01 04:28:54;;;;;;;16.07;12.33;;;15.10;99.90;;;;;;4995765;28;20432;-74
2021/07/01 04:31:23;;;;;;;13.57;11.63;;;15.10;99.90;;;;;;4996247;28;20507;-74
2021/07/01 04:33:57;;;;;;;14.53;11.17;;;15.10;99.90;;;;;;4995766;28;20436;-74
2021/07/01 04:36:27;;;;;;;12.83;10.83;;;15.10;99.90;;;;;;5013576;28;20492;-75
2021/07/01 04:38:56;;;;;;;12.87;10.63;;;15.10;99.90;;;;;;4997017;28;20422;-75
2021/07/01 04:41:27;;;;;;;10.23;9.23;;;15.10;99.90;;;;;;4995701;28;20477;-74
2021/07/01 04:43:58;;;;;;;10.30;9.20;;;15.10;99.90;;;;;;4995434;28;20460;-74
2021/07/01 04:46:29;;;;;;;10.03;8.77;;;15.10;99.90;;;;;;4997294;28;20434;-74
2021/07/01 04:48:58;;;;;;;10.00;8.97;;;15.10;99.90;;;;;;4995465;28;20798;-74
2021/07/01 04:51:28;;;;;;;10.23;9.13;;;15.20;99.90;;;;;;4996439;28;20429;-73
2021/07/01 04:54:15;;;;;;;11.27;9.13;;;15.10;99.90;;;;;;5013927;28;20416;-74
2021/07/01 04:57:02;;;;;;;9.63;8.73;;;15.10;99.90;;;;;;5013839;28;20449;-74
2021/07/01 04:59:30;;;;;;;9.37;8.47;;;15.10;99.90;;;;;;4996171;28;20470;-74
2021/07/01 05:01:59;;;;;;;9.73;8.30;;;15.20;99.90;;;;;;5014022;28;20427;-74
2021/07/01 05:04:32;;;;;;;11.87;8.60;;;15.20;99.90;;;;;;5012270;28;20542;-74
2021/07/01 05:07:02;;;;;;;8.93;8.03;;;15.20;99.90;;;;;;4994163;28;20429;-74
2021/07/01 05:09:33;;;;;;;9.07;8.17;;;15.20;99.90;;;;;;4993216;28;20453;-74
2021/07/01 05:12:13;;;;;;;10.20;8.27;;;15.20;99.90;;;;;;4995388;28;20810;-74
2021/07/01 05:14:43;;;;;;;9.53;8.63;;;15.30;99.90;;;;;;4999401;28;21017;-74
2021/07/01 05:17:12;;;;;;;10.33;8.83;;;15.30;99.90;;;;;;4999260;28;20521;-74
2021/07/01 05:19:41;;;;;;;8.97;7.20;;;15.30;99.90;;;;;;4999005;28;20475;-74
2021/07/01 05:22:14;;;;;;;8.38;7.57;;;15.30;99.90;;;;;;4998453;28;20429;-74
2021/07/01 05:25:01;;;;;;;6.57;5.90;;;15.30;99.90;;;;;;5017255;28;20216;-74
2021/07/01 05:55:17;;;;;;;6.27;5.07;;;15.30;99.90;;;;;;4890481;29;21007;-75
2021/07/01 05:57:45;;;;;;;6.10;5.07;;;15.30;99.90;;;;;;4943142;29;20450;-76
2021/07/01 06:00:17;;;;;;;5.37;4.87;;;15.30;99.90;;;;;;4955592;28;20443;-75
2021/07/01 06:02:51;;;;;;;5.30;4.47;;;15.40;99.90;;;;;;4939594;29;20508;-76
2021/07/01 06:05:19;;;;;;;6.50;5.60;;;15.40;99.90;;;;;;4939642;29;21056;-76
2021/07/01 06:07:57;;;;;;;5.30;4.80;;;15.40;99.90;;;;;;4955694;29;20787;-76
2021/07/01 06:10:30;;;;;;;5.60;5.00;;;15.40;99.90;;;;;;4939358;29;20483;-76
2021/07/01 06:13:00;;;;;;;4.20;3.67;;;15.40;99.90;;;;;;4939503;29;20480;-75
2021/07/01 06:15:29;;;;;;;4.97;4.47;;;15.40;99.90;;;;;;4939306;29;20549;-76
2021/07/01 06:17:57;;;;;;;5.10;4.60;;;15.50;99.90;;;;;;4939143;29;20495;-77
2021/07/01 06:20:25;;;;;;;5.20;4.40;;;15.50;99.90;;;;;;4938769;29;20438;-76
2021/07/01 06:22:54;;;;;;;4.20;3.80;;;15.50;99.90;;;;;;4938162;29;20483;-75
2021/07/01 06:25:23;;;;;;;4.00;3.60;;;15.50;99.90;;;;;;5004249;28;20792;-75
2021/07/01 06:27:52;;;;;;;6.17;4.73;;;15.50;99.90;;;;;;5015445;28;20414;-76
2021/07/01 06:30:21;;;;;;;4.37;3.97;;;15.50;99.90;;;;;;4997707;28;20529;-76
2021/07/01 06:32:55;;;;;;;4.70;4.30;;;15.60;99.90;;;;;;4997837;28;20762;-76
2021/07/01 06:35:25;;;;;;;4.47;4.07;;;15.60;99.90;;;;;;5015342;28;20485;-76
2021/07/01 06:38:01;;;;;;;4.23;3.83;;;15.60;99.90;;;;;;4998563;28;20445;-76
2021/07/01 06:40:50;;;;;;;4.00;3.60;;;15.60;99.90;;;;;;5015249;28;20529;-76
2021/07/01 06:43:58;;;;;;;5.03;4.60;;;15.60;99.90;;;;;;4955140;29;20847;-76
2021/07/01 06:47:02;;;;;;;4.40;3.73;;;15.60;99.90;;;;;;4879048;29;20464;-76
2021/07/01 06:49:51;;;;;;;4.40;3.90;;;15.70;99.90;;;;;;5001527;28;20817;-75
2021/07/01 06:52:39;;;;;;;5.07;4.57;;;15.70;99.90;;;;;;5015548;28;20413;-76
2021/07/01 06:55:40;;;;;;;4.33;3.90;;;15.70;99.90;;;;;;4999318;28;20446;-77
2021/07/01 06:58:24;;;;;;;4.93;4.40;;;15.70;99.90;;;;;;5015120;28;20435;-77
2021/07/01 07:00:54;;;;;;;4.83;4.43;;;15.70;99.90;;;;;;4997227;28;20541;-76
2021/07/01 07:03:24;;;;;;;4.20;3.80;;;15.80;99.90;;;;;;4997100;28;20854;-76
2021/07/01 07:05:53;;;;;;;5.20;4.73;;;15.80;99.90;;;;;;5014914;28;20510;-76
2021/07/01 07:08:22;;;;;;;5.20;4.77;;;15.80;99.90;;;;;;4996989;28;20447;-76
2021/07/01 07:10:51;;;;;;;5.63;5.13;;;15.80;99.90;;;;;;4996900;28;20463;-76
2021/07/01 07:13:24;;;;;;;6.93;4.80;;;15.90;99.90;;;;;;5014628;28;20776;-76
2021/07/01 07:15:55;;;;;;;5.50;5.00;;;15.90;99.90;;;;;;4997002;28;20442;-76
2021/07/01 07:18:25;;;;;;;4.80;4.30;;;15.90;99.90;;;;;;4997206;28;20447;-76
2021/07/01 07:20:55;;;;;;;4.40;4.00;;;16.00;99.90;;;;;;4996736;28;20821;-76
2021/07/01 07:23:29;;;;;;;5.07;4.60;;;16.00;99.90;;;;;;5014385;28;20457;-76
2021/07/01 07:25:59;;;;;;;6.70;5.17;;;16.00;99.90;;;;;;4997576;28;20433;-76
2021/07/01 07:28:36;;;;;;;5.60;4.53;;;16.00;99.90;;;;;;5014581;28;20408;-76
2021/07/01 07:31:06;;;;;;;5.20;4.70;;;16.10;99.90;;;;;;5014133;28;20491;-76
2021/07/01 07:33:35;;;;;;;5.10;4.60;;;16.20;99.90;;;;;;5014707;28;20219;-77
2021/07/01 07:36:03;;;;;;;5.07;4.57;;;16.20;99.90;;;;;;4996505;28;20430;-77
2021/07/01 07:38:31;;;;;;;5.03;4.53;;;16.20;99.90;;;;;;5014199;28;20521;-77
2021/07/01 07:41:00;;;;;;;5.57;5.07;;;16.20;99.90;;;;;;5014092;28;20429;-77
2021/07/01 07:43:28;;;;;;;5.37;4.80;;;16.30;99.90;;;;;;4996722;28;20459;-77
2021/07/01 07:45:57;;;;;;;11.03;6.90;;;16.30;99.90;;;;;;5014077;28;20504;-77
2021/07/01 07:48:26;;;;;;;6.63;5.97;;;16.40;99.90;;;;;;4996466;28;20963;-77
2021/07/01 07:50:57;;;;;;;6.00;5.40;;;16.40;99.90;;;;;;4996380;28;20531;-77
2021/07/01 07:53:30;;;;;;;6.03;5.40;;;16.40;99.90;;;;;;4996194;28;20449;-77
2021/07/01 07:56:03;;;;;;;6.27;5.67;;;16.50;99.90;;;;;;4996406;28;20450;-77
2021/07/01 07:58:34;;;;;;;7.03;6.20;;;16.50;99.90;;;;;;4996355;28;20410;-77
2021/07/01 08:01:03;;;;;;;6.90;6.20;;;16.50;99.90;;;;;;4996115;28;20474;-76
2021/07/01 08:03:34;;;;;;;7.30;6.60;;;16.50;99.90;;;;;;5014149;28;20417;-76
2021/07/01 08:06:05;;;;;;;6.40;5.63;;;16.60;99.90;;;;;;5013945;28;20489;-76
2021/07/01 08:08:36;;;;;;;8.17;7.37;;;16.60;99.90;;;;;;4996098;28;20452;-76
2021/07/01 08:11:06;;;;;;;7.90;7.20;;;16.60;99.90;;;;;;4995874;28;20494;-76
2021/07/01 08:13:37;;;;;;;7.90;7.10;;;16.60;99.90;;;;;;5013857;28;20893;-76
2021/07/01 08:16:06;;;;;;;8.60;6.53;;;16.70;99.90;;;;;;4996870;28;20447;-76
2021/07/01 08:18:39;;;;;;;7.60;6.80;;;16.70;99.90;;;;;;4996047;28;20458;-76
2021/07/01 08:21:08;;;;;;;8.00;7.30;;;16.70;99.90;;;;;;5013547;28;20518;-76
2021/07/01 08:23:40;;;;;;;9.17;7.60;;;16.80;99.90;;;;;;4995935;28;20514;-76
2021/07/01 08:26:10;;;;;;;9.13;8.23;;;16.80;99.90;;;;;;5013579;28;20521;-76
2021/07/01 08:28:38;;;;;;;9.30;7.90;;;16.80;99.90;;;;;;4996110;28;20531;-77
2021/07/01 08:31:08;;;;;;;9.97;9.07;;;16.80;99.90;;;;;;5013475;28;20461;-76
2021/07/01 08:33:40;;;;;;;10.30;8.90;;;16.90;99.90;;;;;;4996198;28;20424;-76
2021/07/01 08:36:13;;;;;;;9.67;8.77;;;16.90;99.90;;;;;;4996031;28;20438;-76
2021/07/01 08:38:42;;;;;;;10.20;9.20;;;16.90;99.90;;;;;;4995866;28;20446;-76
2021/07/01 08:41:17;;;;;;;10.00;9.00;;;17.00;99.90;;;;;;4996046;28;20470;-76
2021/07/01 08:43:52;;;;;;;12.60;11.30;;;17.00;99.90;;;;;;4994872;28;20548;-76
2021/07/01 08:46:25;;;;;;;12.37;10.97;;;17.10;99.90;;;;;;4996271;28;20219;-76
2021/07/01 08:49:13;;;;;;;14.23;11.27;;;17.20;99.90;;;;;;4999629;28;20460;-76
2021/07/01 08:51:45;;;;;;;13.20;11.90;;;17.20;99.90;;;;;;4999681;28;20453;-76
2021/07/01 08:54:29;;;;;;;13.38;11.98;;;17.30;99.90;;;;;;4999076;28;20882;-76
2021/07/01 08:56:58;;;;;;;13.23;11.87;;;17.30;99.90;;;;;;4999539;28;20196;-76
2021/07/01 08:59:28;;;;;;;14.43;12.93;;;17.40;99.90;;;;;;5017305;28;20541;-76
2021/07/01 09:01:58;;;;;;;14.10;12.67;;;17.40;99.90;;;;;;4999534;28;20446;-76
2021/07/01 09:04:30;;;;;;;15.77;14.27;;;17.50;99.90;;;;;;4999412;28;20481;-76
2021/07/01 09:07:01;;;;;;;15.63;14.03;;;17.50;99.90;;;;;;4999399;28;20466;-76
2021/07/01 09:09:33;;;;;;;15.43;13.83;;;17.60;99.90;;;;;;4999245;28;20473;-76
2021/07/01 09:12:04;;;;;;;17.10;14.70;;;17.60;99.90;;;;;;4999334;28;20454;-76
2021/07/01 09:14:35;;;;;;;15.37;13.83;;;17.70;99.90;;;;;;5016820;28;20505;-76
2021/07/01 09:17:08;;;;;;;17.13;15.33;;;17.70;99.90;;;;;;4999245;28;20453;-76
2021/07/01 09:19:41;;;;;;;15.53;13.97;;;17.80;99.90;;;;;;4999089;28;20476;-76
2021/07/01 09:22:12;;;;;;;17.40;15.70;;;17.80;99.90;;;;;;4999068;28;20470;-76
2021/07/01 09:24:41;;;;;;;16.93;15.10;;;17.90;99.90;;;;;;4999090;28;20447;-76
2021/07/01 09:27:11;;;;;;;18.40;16.50;;;17.90;99.90;;;;;;5016448;28;20478;-76
2021/07/01 09:29:42;;;;;;;19.67;17.73;;;18.00;99.90;;;;;;4998898;28;20562;-76
2021/07/01 09:32:12;;;;;;;19.87;17.87;;;18.10;99.90;;;;;;5016803;28;20492;-77
2021/07/01 09:34:43;;;;;;;18.80;16.90;;;18.10;99.90;;;;;;4998747;28;20553;-76
2021/07/01 09:37:12;;;;;;;20.50;18.47;;;18.20;99.90;;;;;;4998704;28;20541;-76
2021/07/01 09:39:43;;;;;;;21.07;18.97;;;18.20;99.90;;;;;;4998991;28;20879;-76
2021/07/01 09:42:11;;;;;;;19.10;17.07;;;18.30;99.90;;;;;;4998623;28;20931;-76
2021/07/01 09:44:40;;;;;;;18.60;16.80;;;18.30;99.90;;;;;;4998549;28;20458;-76
2021/07/01 09:47:11;;;;;;;20.60;18.70;;;18.30;99.90;;;;;;5016087;28;21225;-76
2021/07/01 09:49:43;;;;;;;19.87;18.07;;;18.40;99.90;;;;;;4998418;28;20517;-76
2021/07/01 09:52:16;;;;;;;20.97;19.03;;;18.40;99.90;;;;;;4998477;28;20450;-76
2021/07/01 09:54:50;;;;;;;20.37;18.37;;;18.40;99.90;;;;;;5016017;28;20446;-76
2021/07/01 09:57:23;;;;;;;20.97;18.97;;;18.50;99.90;;;;;;5015682;28;20941;-76
2021/07/01 09:59:54;;;;;;;19.90;18.00;;;18.50;99.90;;;;;;5016079;28;20466;-76
2021/07/01 10:02:23;;;;;;;21.13;19.13;;;18.60;99.90;;;;;;4997376;28;20799;-76
2021/07/01 10:04:53;;;;;;;18.97;17.10;;;18.60;99.90;;;;;;4998444;28;20445;-76
2021/07/01 10:07:23;;;;;;;18.50;16.90;;;18.70;99.90;;;;;;4998275;28;20474;-77
2021/07/01 10:09:54;;;;;;;18.17;16.47;;;18.70;99.90;;;;;;5015703;28;20503;-76
2021/07/01 10:12:24;;;;;;;17.77;16.10;;;18.70;99.90;;;;;;4998142;28;20540;-76
2021/07/01 10:14:55;;;;;;;18.13;16.43;;;18.60;99.90;;;;;;4998022;28;20446;-76
2021/07/01 10:17:24;;;;;;;17.83;16.13;;;18.70;99.90;;;;;;4998010;28;20923;-76
2021/07/01 10:20:07;;;;;;;18.40;16.40;;;18.70;99.90;;;;;;4999003;28;20463;-76
2021/07/01 10:22:37;;;;;;;18.70;16.80;;;18.70;99.90;;;;;;4997956;28;20949;-76
2021/07/01 10:25:06;;;;;;;18.33;16.63;;;18.70;99.90;;;;;;4998965;28;20773;-77
2021/07/01 10:27:40;;;;;;;19.57;17.57;;;18.70;99.90;;;;;;4997763;28;20567;-77
2021/07/01 10:30:16;;;;;;;19.10;17.07;;;18.70;99.90;;;;;;5015235;28;20512;-77
2021/07/01 10:32:46;;;;;;;20.57;18.40;;;18.80;99.90;;;;;;4997804;28;20473;-77
2021/07/01 10:35:31;;;;;;;20.40;18.30;;;18.80;99.90;;;;;;4997599;28;20453;-77
2021/07/01 10:38:08;;;;;;;17.90;16.20;;;18.80;99.90;;;;;;4997513;28;20508;-76
2021/07/01 10:40:39;;;;;;;20.00;18.13;;;18.90;99.90;;;;;;5015012;28;20963;-77
2021/07/01 10:43:09;;;;;;;19.57;17.77;;;18.90;99.90;;;;;;4997577;28;20469;-76
2021/07/01 10:45:46;;;;;;;19.23;17.43;;;18.90;99.90;;;;;;4997512;28;20464;-76
2021/07/01 10:48:17;;;;;;;20.97;18.77;;;19.00;99.90;;;;;;4997403;28;20498;-76
2021/07/01 10:50:51;;;;;;;19.23;17.30;;;19.00;99.90;;;;;;5015052;28;20571;-77
2021/07/01 10:53:31;;;;;;;20.10;18.10;;;19.10;99.90;;;;;;4997497;28;20509;-77
2021/07/01 10:56:02;;;;;;;18.90;17.17;;;19.10;99.90;;;;;;5014828;28;20446;-77
2021/07/01 10:58:31;;;;;;;18.80;17.03;;;19.20;99.90;;;;;;5015261;28;20963;-77
2021/07/01 11:01:24;;;;;;;18.07;16.37;;;19.30;99.90;;;;;;5014695;28;20447;-77
2021/07/01 11:04:11;;;;;;;19.47;17.60;;;19.40;99.90;;;;;;4997316;28;20508;-77
2021/07/01 11:06:41;;;;;;;20.80;18.90;;;19.40;99.90;;;;;;5014684;28;20477;-77
2021/07/01 11:09:12;;;;;;;19.20;17.20;;;19.50;99.90;;;;;;4996504;28;20473;-77
2021/07/01 11:11:42;;;;;;;18.30;16.57;;;19.50;99.90;;;;;;5015026;28;20608;-77
2021/07/01 11:14:13;;;;;;;20.30;18.20;;;19.60;99.90;;;;;;4997114;28;20449;-76
2021/07/01 11:16:43;;;;;;;18.23;16.40;;;19.60;99.90;;;;;;4997102;28;20450;-77
2021/07/01 11:19:13;;;;;;;23.03;19.50;;;19.60;99.90;;;;;;5014396;28;20459;-77
2021/07/01 11:21:47;;;;;;;19.90;18.03;;;19.60;99.90;;;;;;5014741;28;20446;-76
2021/07/01 11:24:18;;;;;;;19.70;17.80;;;19.70;99.90;;;;;;4996921;28;20540;-76
2021/07/01 11:26:48;;;;;;;21.07;18.87;;;19.70;99.90;;;;;;5014588;28;20853;-77
2021/07/01 11:29:18;;;;;;;20.40;18.67;;;19.70;99.90;;;;;;4996775;28;21007;-77
2021/07/01 11:31:48;;;;;;;21.27;19.27;;;19.80;99.90;;;;;;4996677;28;20455;-77
2021/07/01 11:34:20;;;;;;;19.73;17.83;;;19.80;99.90;;;;;;5014484;28;20429;-77
2021/07/01 11:36:52;;;;;;;20.90;19.10;;;19.80;99.90;;;;;;4996750;28;20498;-77
2021/07/01 11:39:25;;;;;;;19.33;17.70;;;19.80;99.90;;;;;;4996529;28;20467;-77
2021/07/01 11:41:54;;;;;;;20.10;18.30;;;19.90;99.90;;;;;;4996566;28;20461;-77
2021/07/01 11:44:25;;;;;;;19.63;17.83;;;19.90;99.90;;;;;;4996461;28;20459;-77
2021/07/01 11:46:53;;;;;;;20.97;19.07;;;19.90;99.90;;;;;;5014234;28;20519;-77
2021/07/01 11:49:23;;;;;;;21.27;19.27;;;20.00;99.90;;;;;;4996518;28;20574;-77
2021/07/01 11:51:53;;;;;;;20.63;18.83;;;20.10;99.90;;;;;;4996676;28;20451;-77
2021/07/01 11:54:22;;;;;;;21.33;19.47;;;20.10;99.90;;;;;;5014153;28;20972;-77
2021/07/01 11:56:54;;;;;;;20.67;18.90;;;20.20;99.90;;;;;;4996595;28;20456;-77
2021/07/01 11:59:25;;;;;;;19.13;17.23;;;20.20;99.90;;;;;;5013962;28;20466;-77
2021/07/01 12:01:54;;;;;;;17.43;15.90;;;20.30;99.90;;;;;;5014141;28;20833;-77
2021/07/01 12:04:27;;;;;;;19.13;17.53;;;20.30;99.90;;;;;;4996066;28;20554;-77
2021/07/01 12:07:08;;;;;;;16.73;15.23;;;20.40;99.90;;;;;;4996163;28;20513;-77
2021/07/01 12:09:39;;;;;;;13.60;12.50;;;20.50;99.90;;;;;;5014038;28;20483;-77
2021/07/01 12:12:17;;;;;;;13.20;12.00;;;20.50;99.90;;;;;;4996151;28;20440;-77
2021/07/01 12:14:46;;;;;;;13.55;12.35;;;20.60;99.90;;;;;;4995965;28;20450;-77
2021/07/01 12:17:51;;;;;;;9.83;8.93;;;20.70;99.90;;;;;;4995988;28;20295;-77
2021/07/01 12:20:45;;;;;;;9.43;8.53;;;20.80;99.90;;;;;;5013486;28;20559;-77
2021/07/01 12:23:25;;;;;;;8.20;7.50;;;20.80;99.90;;;;;;4974814;28;20440;-77
2021/07/01 12:25:54;;;;;;;8.37;7.67;;;20.90;99.90;;;;;;5013940;28;20419;-77
2021/07/01 12:28:26;;;;;;;8.53;7.63;;;21.00;99.90;;;;;;5013476;28;20972;-77
2021/07/01 12:31:02;;;;;;;9.27;8.37;;;21.00;99.90;;;;;;4995890;28;20522;-77
2021/07/01 12:33:46;;;;;;;7.77;7.17;;;21.10;99.90;;;;;;5013869;28;20420;-77
2021/07/01 12:36:26;;;;;;;8.53;7.83;;;21.10;99.90;;;;;;4995886;28;20498;-77
2021/07/01 12:39:25;;;;;;;9.33;8.53;;;21.20;99.90;;;;;;4995844;28;20444;-77
2021/07/01 12:41:57;;;;;;;9.83;8.60;;;21.20;99.90;;;;;;4995895;28;20925;-77
2021/07/01 12:44:30;;;;;;;9.83;9.03;;;21.20;99.90;;;;;;4995664;28;20479;-77
2021/07/01 12:47:11;;;;;;;12.30;11.20;;;21.10;99.90;;;;;;5013716;28;20434;-76
2021/07/01 12:49:56;;;;;;;11.93;10.73;;;21.10;99.90;;;;;;5013382;28;20493;-77
2021/07/01 12:52:33;;;;;;;13.70;12.40;;;21.10;99.90;;;;;;4995744;28;20816;-76
2021/07/01 12:55:05;;;;;;;14.43;13.03;;;21.10;99.90;;;;;;5013670;28;20959;-77
2021/07/01 12:57:34;;;;;;;17.13;15.53;;;21.10;99.90;;;;;;4995714;28;20475;-77
2021/07/01 13:00:06;;;;;;;17.07;15.63;;;21.00;99.90;;;;;;4995567;28;20479;-77
2021/07/01 13:02:35;;;;;;;18.23;16.60;;;21.00;99.90;;;;;;4996414;28;20478;-77
2021/07/01 13:05:07;;;;;;;17.53;15.43;;;21.00;99.90;;;;;;4995873;28;20454;-77
2021/07/01 13:07:36;;;;;;;19.00;15.93;;;20.90;99.90;;;;;;4995597;28;20479;-77
2021/07/01 13:10:09;;;;;;;17.90;16.10;;;20.90;99.90;;;;;;5013378;28;20458;-77
2021/07/01 13:12:41;;;;;;;18.90;17.20;;;20.80;99.90;;;;;;4995729;28;20447;-77
2021/07/01 13:15:26;;;;;;;18.23;16.40;;;20.80;99.90;;;;;;5013408;28;20435;-77
2021/07/01 13:17:55;;;;;;;19.03;16.87;;;20.80;99.90;;;;;;4995608;28;20447;-77
2021/07/01 13:20:24;;;;;;;18.20;16.40;;;20.90;99.90;;;;;;5013181;28;20478;-77
2021/07/01 13:22:52;;;;;;;17.60;15.90;;;20.90;99.90;;;;;;4995494;28;20474;-77
2021/07/01 13:25:22;;;;;;;17.10;15.63;;;20.90;99.90;;;;;;4995574;28;20574;-77
2021/07/01 13:27:52;;;;;;;17.17;15.43;;;20.90;99.90;;;;;;4995465;28;20456;-77
2021/07/01 13:30:30;;;;;;;18.27;16.40;;;20.90;99.90;;;;;;4995320;28;20500;-77
2021/07/01 13:33:00;;;;;;;17.40;15.60;;;20.90;99.90;;;;;;5014901;28;20459;-77
2021/07/01 13:35:33;;;;;;;16.97;15.37;;;20.90;99.90;;;;;;4998967;28;20522;-77
2021/07/01 13:38:07;;;;;;;17.67;15.90;;;21.00;99.90;;;;;;5016506;28;20424;-77
2021/07/01 13:40:38;;;;;;;17.10;15.40;;;21.00;99.90;;;;;;4998797;28;20472;-77
2021/07/01 13:43:07;;;;;;;18.20;16.40;;;21.00;99.90;;;;;;5016920;28;20464;-77
2021/07/01 13:45:36;;;;;;;18.67;16.63;;;21.10;99.90;;;;;;4998679;28;20812;-77
2021/07/01 13:48:06;;;;;;;18.23;16.40;;;21.20;99.90;;;;;;4998755;28;20868;-77
2021/07/01 13:50:37;;;;;;;15.70;13.90;;;21.20;99.90;;;;;;5015993;28;20569;-76
2021/07/01 13:53:07;;;;;;;15.07;13.47;;;21.20;99.90;;;;;;5016978;28;20436;-77
2021/07/01 13:55:39;;;;;;;14.57;13.27;;;21.30;99.90;;;;;;5016011;28;20547;-76
2021/07/01 13:58:08;;;;;;;12.90;11.60;;;21.40;99.90;;;;;;4998463;28;20449;-76
2021/07/01 14:00:39;;;;;;;16.37;13.60;;;21.40;99.90;;;;;;4998319;28;20904;-77
2021/07/01 14:03:10;;;;;;;15.47;13.97;;;21.50;99.90;;;;;;5016273;28;20565;-77
2021/07/01 14:05:41;;;;;;;14.60;13.10;;;21.60;99.90;;;;;;4998120;28;20483;-76
2021/07/01 14:08:23;;;;;;;18.03;13.70;;;21.60;99.90;;;;;;4998194;28;20192;-76
2021/07/01 14:11:03;;;;;;;10.70;9.60;;;21.70;99.90;;;;;;4998133;28;20504;-76
2021/07/01 14:13:35;;;;;;;13.00;9.70;;;21.70;99.90;;;;;;5016020;28;20527;-76
2021/07/01 14:16:04;;;;;;;11.13;10.03;;;21.70;99.90;;;;;;4998148;28;20471;-76
2021/07/01 14:18:35;;;;;;;12.90;11.70;;;21.70;99.90;;;;;;5014587;28;20986;-76
2021/07/01 14:21:04;;;;;;;12.23;10.77;;;21.80;99.90;;;;;;4997959;28;20297;-76
2021/07/01 14:23:34;;;;;;;13.83;10.60;;;21.80;99.90;;;;;;4997863;28;20509;-75
2021/07/01 14:26:17;;;;;;;11.50;9.90;;;21.80;99.90;;;;;;4996152;28;20464;-75
2021/07/01 14:28:47;;;;;;;13.10;10.33;;;21.80;99.90;;;;;;5015187;28;20506;-75
2021/07/01 14:31:17;;;;;;;13.63;11.30;;;21.90;99.90;;;;;;5012655;28;20448;-76
2021/07/01 14:33:47;;;;;;;11.50;10.30;;;21.90;99.90;;;;;;4996406;28;20453;-77
2021/07/01 14:36:22;;;;;;;12.47;9.90;;;22.00;99.90;;;;;;4995910;28;20452;-76
2021/07/01 14:38:56;;;;;;;11.10;9.93;;;22.00;99.90;;;;;;5013664;28;20443;-76
2021/07/01 14:41:28;;;;;;;11.33;10.17;;;22.10;99.90;;;;;;4996680;28;20480;-74
2021/07/01 14:43:58;;;;;;;12.30;9.53;;;22.10;99.90;;;;;;5014146;28;20456;-76
2021/07/01 14:46:30;;;;;;;10.67;9.67;;;22.10;99.90;;;;;;4997563;28;20499;-76
2021/07/01 14:49:01;;;;;;;11.90;10.80;;;22.10;99.90;;;;;;5015015;28;20564;-76
2021/07/01 14:51:32;;;;;;;11.07;10.07;;;22.20;99.90;;;;;;4996530;28;20463;-76
2021/07/01 14:54:16;;;;;;;9.87;9.00;;;22.20;99.90;;;;;;5014409;28;20527;-76
2021/07/01 14:56:51;;;;;;;10.93;9.30;;;22.20;99.90;;;;;;4997146;28;20531;-75
2021/07/01 14:59:20;;;;;;;11.33;10.33;;;22.10;99.90;;;;;;4997237;28;20492;-75
2021/07/01 15:01:54;;;;;;;11.90;8.90;;;22.10;99.90;;;;;;4997399;28;20452;-75
2021/07/01 15:04:35;;;;;;;11.07;9.93;;;22.10;99.90;;;;;;4997185;28;20444;-75
2021/07/01 15:07:05;;;;;;;10.00;9.00;;;22.10;99.90;;;;;;4997162;28;20447;-75
2021/07/01 15:09:44;;;;;;;10.03;9.00;;;22.10;99.90;;;;;;4996933;28;20932;-75
2021/07/01 15:12:18;;;;;;;11.60;8.80;;;22.10;99.90;;;;;;5014518;28;20451;-75
2021/07/01 15:14:48;;;;;;;9.90;8.40;;;22.10;99.90;;;;;;5014044;28;20444;-75
2021/07/01 15:17:16;;;;;;;10.43;9.43;;;22.10;99.90;;;;;;5014143;28;20439;-75
2021/07/01 15:19:46;;;;;;;8.80;8.00;;;22.20;99.90;;;;;;4996840;28;20694;-75
2021/07/01 15:22:16;;;;;;;10.20;9.20;;;22.30;99.90;;;;;;4996809;28;20559;-75
2021/07/01 15:24:44;;;;;;;8.47;7.67;;;22.30;99.90;;;;;;5014335;28;20437;-75
2021/07/01 15:27:12;;;;;;;8.70;7.80;;;22.40;99.90;;;;;;5014404;28;20531;-74
2021/07/01 15:29:42;;;;;;;9.40;8.40;;;22.50;99.90;;;;;;4996413;28;20476;-74
2021/07/01 15:32:11;;;;;;;8.37;7.57;;;22.60;99.90;;;;;;5014097;28;20790;-74
2021/07/01 15:34:39;;;;;;;8.60;7.80;;;22.60;99.90;;;;;;4996072;28;20458;-73
2021/07/01 15:37:07;;;;;;;7.20;6.47;;;22.60;99.90;;;;;;5014067;28;20544;-74
2021/07/01 15:39:35;;;;;;;7.87;7.07;;;22.60;99.90;;;;;;5013837;28;20471;-74
2021/07/01 15:42:08;;;;;;;8.70;7.80;;;22.70;99.90;;;;;;4996426;28;20539;-74
2021/07/01 15:44:37;;;;;;;8.00;7.30;;;22.60;99.90;;;;;;5013943;28;20451;-75
2021/07/01 15:47:08;;;;;;;7.70;7.00;;;22.70;99.90;;;;;;5014158;28;20441;-75